Time;durP1;ratioP1;P1;durP2;ratioP2;P2;SDS_P1;SDS_P2;PMS_P1;PMS_P2;Temp;Humidity;BMP_temperature;BMP_pressure;BME280_temperature;BME280_humidity;BME280_pressure;Samples;Min_cycle;Max_cycle;Signal;HPM_P1;HPM_P2
2022/10/22 00:02:14;;;;;;;8.50;4.60;;;;;;;-143.85;100.00;70650.75;5114701;28;20051;-86
2022/10/22 00:04:40;;;;;;;8.35;5.50;;;;;;;-143.85;100.00;70650.75;5114950;28;20051;-87
2022/10/22 00:07:05;;;;;;;6.22;3.63;;;;;;;-143.85;100.00;70650.75;5100676;28;20019;-86
2022/10/22 00:09:31;;;;;;;8.75;4.22;;;;;;;-143.85;100.00;70650.75;5114956;28;20399;-87
2022/10/22 00:11:56;;;;;;;9.25;4.20;;;;;;;-143.85;100.00;70650.75;5114955;28;20518;-86
2022/10/22 00:14:24;;;;;;;13.25;4.68;;;;;;;-143.85;100.00;70650.75;5115040;28;20084;-86
2022/10/22 00:16:49;;;;;;;11.43;5.32;;;;;;;-143.85;100.00;70650.75;5099952;28;20024;-86
2022/10/22 00:19:15;;;;;;;5.45;4.07;;;;;;;-143.85;100.00;70650.75;5105978;28;20392;-86
2022/10/22 00:21:40;;;;;;;9.63;4.20;;;;;;;-143.85;100.00;70650.75;5094599;28;20024;-86
2022/10/22 00:24:06;;;;;;;10.80;5.63;;;;;;;-143.85;100.00;70650.75;5109769;28;20039;-87
2022/10/22 00:26:32;;;;;;;10.25;5.15;;;;;;;-143.85;100.00;70650.75;5094070;28;20032;-85
2022/10/22 00:28:57;;;;;;;9.20;3.75;;;;;;;-143.85;100.00;70650.75;5095372;28;20028;-85
2022/10/22 00:31:23;;;;;;;9.52;4.57;;;;;;;-143.85;100.00;70650.75;5110472;28;20084;-87
2022/10/22 00:33:48;;;;;;;14.77;6.03;;;;;;;-143.85;100.00;70650.75;5099605;28;20032;-85
2022/10/22 00:36:15;;;;;;;8.75;4.78;;;;;;;-143.85;100.00;70650.75;5097497;28;20081;-86
2022/10/22 00:38:40;;;;;;;9.15;4.78;;;;;;;-143.85;100.00;70650.75;5094087;28;20060;-86
2022/10/22 00:41:06;;;;;;;8.07;3.63;;;;;;;-143.85;100.00;70650.75;5108178;28;20051;-88
2022/10/22 00:43:32;;;;;;;7.20;3.88;;;;;;;-143.85;100.00;70650.75;5102363;28;20479;-86
2022/10/22 00:45:57;;;;;;;12.27;3.95;;;;;;;-143.85;100.00;70650.75;5107640;28;20028;-87
2022/10/22 00:48:29;;;;;;;10.15;4.88;;;;;;;-143.85;100.00;70650.75;5114173;28;20020;-86
2022/10/22 00:51:04;;;;;;;8.40;4.45;;;;;;;-143.85;100.00;70650.75;5098396;28;20479;-86
2022/10/22 00:53:30;;;;;;;8.65;4.57;;;;;;;-143.85;100.00;70650.75;5103472;28;20023;-87
2022/10/22 00:55:55;;;;;;;8.50;5.22;;;;;;;-143.85;100.00;70650.75;5113521;28;20031;-86
2022/10/22 00:58:24;;;;;;;10.70;5.15;;;;;;;-143.85;100.00;70650.75;5093660;28;20119;-87
2022/10/22 01:00:50;;;;;;;10.57;4.90;;;;;;;-143.85;100.00;70650.75;5108880;28;20019;-86
2022/10/22 01:03:16;;;;;;;12.48;4.45;;;;;;;-143.85;100.00;70650.75;5113882;28;20410;-88
2022/10/22 01:05:49;;;;;;;9.65;4.63;;;;;;;-143.85;100.00;70650.75;5106618;28;20419;-87
2022/10/22 01:08:27;;;;;;;9.70;4.28;;;;;;;-143.85;100.00;70650.75;5093464;28;20116;-88
2022/10/22 01:11:08;;;;;;;7.07;4.40;;;;;;;-143.85;100.00;70650.75;5114001;28;20066;-86
2022/10/22 01:13:56;;;;;;;9.20;4.40;;;;;;;-143.85;100.00;70650.75;5113823;28;20034;-87
2022/10/22 01:16:44;;;;;;;9.57;4.40;;;;;;;-143.85;100.00;70650.75;5103863;28;20107;-87
2022/10/22 01:19:26;;;;;;;9.43;3.88;;;;;;;-143.85;100.00;70650.75;5115855;27;20024;-87
2022/10/22 01:22:12;;;;;;;5.75;3.40;;;;;;;-143.85;100.00;70650.75;5113483;28;20051;-87
2022/10/22 01:24:52;;;;;;;10.50;4.47;;;;;;;-143.85;100.00;70650.75;5094585;28;20032;-87
2022/10/22 01:27:34;;;;;;;11.98;4.40;;;;;;;-143.85;100.00;70650.75;5110411;28;20035;-86
2022/10/22 01:30:04;;;;;;;6.82;4.05;;;;;;;-143.85;100.00;70650.75;5102394;28;20032;-87
2022/10/22 01:32:34;;;;;;;10.43;4.70;;;;;;;-143.85;100.00;70650.75;5108027;28;20483;-86
2022/10/22 01:35:06;;;;;;;8.38;5.03;;;;;;;-143.85;100.00;70650.75;5103538;28;20019;-87
2022/10/22 01:37:35;;;;;;;11.85;5.45;;;;;;;-143.85;100.00;70650.75;5113518;28;20024;-87
2022/10/22 01:40:02;;;;;;;6.80;4.20;;;;;;;-143.85;100.00;70650.75;5113177;28;20111;-86
2022/10/22 01:42:27;;;;;;;7.88;5.13;;;;;;;-143.85;100.00;70650.75;5112895;28;20028;-86
2022/10/22 01:44:53;;;;;;;8.60;4.95;;;;;;;-143.85;100.00;70650.75;5114245;28;20535;-86
2022/10/22 01:47:42;;;;;;;7.10;3.65;;;;;;;-143.85;100.00;70650.75;5114090;28;20026;-86
2022/10/22 01:50:34;;;;;;;6.13;3.80;;;;;;;-143.85;100.00;70650.75;5105315;28;20089;-88
2022/10/22 01:53:24;;;;;;;8.10;4.18;;;;;;;-143.85;100.00;70650.75;5092525;28;20081;-87
2022/10/22 01:56:09;;;;;;;6.57;3.83;;;;;;;-143.85;100.00;70650.75;5093137;28;20404;-87
2022/10/22 01:58:47;;;;;;;5.93;4.13;;;;;;;-143.85;100.00;70650.75;5104977;28;20454;-87
2022/10/22 02:01:20;;;;;;;7.85;4.78;;;;;;;-143.85;100.00;70650.75;5093027;28;20032;-88
2022/10/22 02:03:55;;;;;;;7.68;3.85;;;;;;;-143.85;100.00;70650.75;5110824;28;20028;-88
2022/10/22 02:06:23;;;;;;;6.50;4.32;;;;;;;-143.85;100.00;70650.75;5112953;28;20111;-87
2022/10/22 02:08:51;;;;;;;8.95;3.88;;;;;;;-143.85;100.00;70650.75;5108932;28;20032;-87
2022/10/22 02:11:17;;;;;;;;;;;;;;;-143.85;100.00;70650.75;5092824;28;20035;-87
2022/10/22 02:13:51;;;;;;;6.97;3.70;;;;;;;-143.85;100.00;70650.75;5097962;28;19911;-87
2022/10/22 02:16:28;;;;;;;10.88;4.13;;;;;;;-143.85;100.00;70650.75;5102313;28;20028;-87
2022/10/22 02:18:57;;;;;;;7.88;4.30;;;;;;;-143.85;100.00;70650.75;5112498;28;20031;-86
2022/10/22 02:21:23;;;;;;;7.32;3.95;;;;;;;-143.85;100.00;70650.75;5102186;28;20028;-86
2022/10/22 02:23:48;;;;;;;7.53;4.38;;;;;;;-143.85;100.00;70650.75;5095490;28;20027;-86
2022/10/22 02:26:21;;;;;;;5.05;3.33;;;;;;;-143.85;100.00;70650.75;5104045;28;20123;-86
2022/10/22 02:29:05;;;;;;;6.43;4.80;;;;;;;-143.85;100.00;70650.75;5112559;28;20032;-86
2022/10/22 02:31:36;;;;;;;13.20;4.28;;;;;;;-143.85;100.00;70650.75;5112252;28;20472;-86
2022/10/22 02:34:08;;;;;;;6.63;3.35;;;;;;;-143.85;100.00;70650.75;5096038;28;20216;-86
2022/10/22 02:36:35;;;;;;;6.47;4.07;;;;;;;-143.85;100.00;70650.75;5101692;28;20043;-86
2022/10/22 02:39:01;;;;;;;7.78;4.18;;;;;;;-143.85;100.00;70650.75;5111043;28;20028;-86
2022/10/22 02:41:27;;;;;;;7.63;3.70;;;;;;;-143.85;100.00;70650.75;5092171;28;20020;-87
2022/10/22 02:43:54;;;;;;;8.95;5.00;;;;;;;-143.85;100.00;70650.75;5105695;28;20110;-86
2022/10/22 02:46:19;;;;;;;5.63;3.33;;;;;;;-143.85;100.00;70650.75;5106467;28;20107;-86
2022/10/22 02:48:45;;;;;;;8.77;4.22;;;;;;;-143.85;100.00;70650.75;5102785;28;20116;-87
2022/10/22 02:51:10;;;;;;;6.60;3.95;;;;;;;-143.85;100.00;70650.75;5113220;28;20023;-87
2022/10/22 02:53:36;;;;;;;10.73;5.25;;;;;;;-143.85;100.00;70650.75;5113380;28;20031;-87
2022/10/22 02:56:01;;;;;;;5.20;3.88;;;;;;;-143.85;100.00;70650.75;5112330;28;20040;-86
2022/10/22 02:58:27;;;;;;;7.60;4.25;;;;;;;-143.85;100.00;70650.75;5113541;28;20028;-85
2022/10/22 03:00:52;;;;;;;9.48;4.15;;;;;;;-143.85;100.00;70650.75;5113328;28;20023;-85
2022/10/22 03:03:18;;;;;;;10.93;3.58;;;;;;;-143.85;100.00;70650.75;5097294;28;20510;-86
2022/10/22 03:05:43;;;;;;;12.93;5.65;;;;;;;-143.85;100.00;70650.75;5112713;28;20123;-86
2022/10/22 03:08:08;;;;;;;5.68;4.43;;;;;;;-143.85;100.00;70650.75;5099628;28;20031;-86
2022/10/22 03:10:34;;;;;;;5.47;3.67;;;;;;;-143.85;100.00;70650.75;5112299;28;20034;-85
2022/10/22 03:12:59;;;;;;;8.30;4.50;;;;;;;-143.85;100.00;70650.75;5108790;28;20020;-86
2022/10/22 03:15:25;;;;;;;7.28;4.97;;;;;;;-143.85;100.00;70650.75;5108988;28;20034;-86
2022/10/22 03:17:50;;;;;;;8.35;4.25;;;;;;;-143.85;100.00;70650.75;5107467;28;20028;-86
2022/10/22 03:20:16;;;;;;;11.13;4.47;;;;;;;-143.85;100.00;70650.75;5110845;28;20088;-86
2022/10/22 03:22:43;;;;;;;5.97;3.10;;;;;;;-143.85;100.00;70650.75;5092071;28;20028;-88
2022/10/22 03:25:19;;;;;;;6.50;3.80;;;;;;;-143.85;100.00;70650.75;5091997;28;20048;-88
2022/10/22 03:27:46;;;;;;;9.25;4.78;;;;;;;-143.85;100.00;70650.75;5099776;28;20347;-88
2022/10/22 03:30:12;;;;;;;7.30;3.90;;;;;;;-143.85;100.00;70650.75;5098816;28;20021;-88
2022/10/22 03:32:37;;;;;;;12.20;3.45;;;;;;;-143.85;100.00;70650.75;5097398;28;20034;-88
2022/10/22 03:35:04;;;;;;;10.32;5.53;;;;;;;-143.85;100.00;70650.75;5113028;28;20031;-88
2022/10/22 03:37:30;;;;;;;8.82;4.07;;;;;;;-143.85;100.00;70650.75;5108096;28;20040;-88
2022/10/22 03:39:56;;;;;;;6.68;4.05;;;;;;;-143.85;100.00;70650.75;5100722;28;20110;-88
2022/10/22 03:42:22;;;;;;;6.82;4.50;;;;;;;-143.85;100.00;70650.75;5114560;28;20063;-88
2022/10/22 03:44:48;;;;;;;7.60;3.97;;;;;;;-143.85;100.00;70650.75;5121236;28;20028;-87
2022/10/22 03:47:14;;;;;;;7.63;3.75;;;;;;;-143.85;100.00;70650.75;5130834;28;20036;-86
2022/10/22 03:49:39;;;;;;;9.82;4.40;;;;;;;-143.85;100.00;70650.75;5106503;28;20077;-88
2022/10/22 03:52:06;;;;;;;6.55;3.75;;;;;;;-143.85;100.00;70650.75;5105447;28;20024;-87
2022/10/22 03:54:32;;;;;;;9.75;4.05;;;;;;;-143.85;100.00;70650.75;5112589;28;20111;-86
2022/10/22 03:56:57;;;;;;;9.32;4.38;;;;;;;-143.85;100.00;70650.75;5116446;28;20058;-88
2022/10/22 03:59:22;;;;;;;7.28;3.83;;;;;;;-143.85;100.00;70650.75;5115290;28;20051;-88
2022/10/22 04:01:48;;;;;;;8.00;5.50;;;;;;;-143.85;100.00;70650.75;5115247;28;20027;-86
2022/10/22 04:04:13;;;;;;;15.27;3.65;;;;;;;-143.85;100.00;70650.75;5114912;28;20055;-88
2022/10/22 04:06:39;;;;;;;6.68;4.43;;;;;;;-143.85;100.00;70650.75;5111836;28;20442;-88
2022/10/22 04:09:04;;;;;;;11.00;3.92;;;;;;;-143.85;100.00;70650.75;5095751;28;20107;-88
2022/10/22 04:11:29;;;;;;;6.57;4.43;;;;;;;-143.85;100.00;70650.75;5100661;28;20024;-89
2022/10/22 04:13:55;;;;;;;4.75;2.97;;;;;;;-143.85;100.00;70650.75;5115854;28;20028;-88
2022/10/22 04:16:22;;;;;;;9.20;5.57;;;;;;;-143.85;100.00;70650.75;5114825;28;20019;-88
2022/10/22 04:18:49;;;;;;;13.07;4.60;;;;;;;-143.85;100.00;70650.75;5114732;28;20036;-88
2022/10/22 04:21:17;;;;;;;10.63;3.97;;;;;;;-143.85;100.00;70650.75;5114884;28;20027;-89
2022/10/22 04:23:45;;;;;;;8.65;3.60;;;;;;;-143.85;100.00;70650.75;5100421;28;20118;-88
2022/10/22 04:26:10;;;;;;;8.40;5.00;;;;;;;-143.85;100.00;70650.75;5115432;28;20068;-89
2022/10/22 04:28:36;;;;;;;9.13;4.43;;;;;;;-143.85;100.00;70650.75;5101756;28;20062;-87
2022/10/22 04:31:16;;;;;;;6.50;3.88;;;;;;;-143.85;100.00;70650.75;5098279;28;20024;-87
2022/10/22 04:33:41;;;;;;;12.68;5.05;;;;;;;-143.85;100.00;70650.75;5102082;28;20016;-88
2022/10/22 04:36:12;;;;;;;8.07;5.45;;;;;;;-143.85;100.00;70650.75;5107125;28;20023;-88
2022/10/22 04:38:38;;;;;;;9.52;5.10;;;;;;;-143.85;100.00;70650.75;5115912;28;20031;-87
2022/10/22 04:41:10;;;;;;;8.23;4.78;;;;;;;-143.85;100.00;70650.75;5114116;28;20118;-89
2022/10/22 04:43:35;;;;;;;12.68;5.43;;;;;;;-143.85;100.00;70650.75;5102442;28;20580;-88
2022/10/22 04:46:01;;;;;;;4.68;3.50;;;;;;;-143.85;100.00;70650.75;5093841;28;20028;-87
2022/10/22 04:48:26;;;;;;;8.93;4.55;;;;;;;-143.85;100.00;70650.75;5107268;28;20032;-88
2022/10/22 04:50:52;;;;;;;7.15;4.35;;;;;;;-143.85;100.00;70650.75;5115174;28;20394;-88
2022/10/22 04:53:17;;;;;;;10.32;4.68;;;;;;;-143.85;100.00;70650.75;5113843;28;20020;-88
2022/10/22 04:55:42;;;;;;;11.98;5.15;;;;;;;-143.85;100.00;70650.75;5114731;28;20455;-88
2022/10/22 04:58:08;;;;;;;8.93;5.28;;;;;;;-143.85;100.00;70650.75;5108684;28;20110;-87
2022/10/22 05:00:33;;;;;;;8.45;4.28;;;;;;;-143.85;100.00;70650.75;5104882;28;20030;-87
2022/10/22 05:02:59;;;;;;;7.28;5.38;;;;;;;-143.85;100.00;70650.75;5114719;28;20031;-86
2022/10/22 05:05:24;;;;;;;8.25;5.35;;;;;;;-143.85;100.00;70650.75;5113865;28;20142;-86
2022/10/22 05:07:50;;;;;;;11.40;4.68;;;;;;;-143.85;100.00;70650.75;5113769;28;20038;-84
2022/10/22 05:10:15;;;;;;;14.93;5.00;;;;;;;-143.85;100.00;70650.75;5114727;28;20054;-85
2022/10/22 05:12:41;;;;;;;7.00;4.22;;;;;;;-143.85;100.00;70650.75;5106111;28;20100;-85
2022/10/22 05:15:07;;;;;;;10.32;4.30;;;;;;;-143.85;100.00;70650.75;5108222;28;20107;-85
2022/10/22 05:17:36;;;;;;;7.20;4.20;;;;;;;-143.85;100.00;70650.75;5106409;28;20024;-85
2022/10/22 05:20:02;;;;;;;8.15;4.22;;;;;;;-143.85;100.00;70650.75;5093244;28;20088;-88
2022/10/22 05:22:27;;;;;;;14.10;5.38;;;;;;;-143.85;100.00;70650.75;5093002;28;20487;-86
2022/10/22 05:24:53;;;;;;;6.05;4.70;;;;;;;-143.85;100.00;70650.75;5096184;28;20035;-86
2022/10/22 05:27:18;;;;;;;6.60;4.18;;;;;;;-143.85;100.00;70650.75;5093035;28;20039;-86
2022/10/22 05:29:43;;;;;;;10.20;5.70;;;;;;;-143.85;100.00;70650.75;5102220;28;20031;-86
2022/10/22 05:32:09;;;;;;;13.73;4.85;;;;;;;-143.85;100.00;70650.75;5098890;28;20024;-86
2022/10/22 05:34:35;;;;;;;8.13;4.10;;;;;;;-143.85;100.00;70650.75;5113630;28;20096;-85
2022/10/22 05:37:00;;;;;;;8.20;4.55;;;;;;;-143.85;100.00;70650.75;5100134;28;20024;-86
2022/10/22 05:39:26;;;;;;;8.73;4.22;;;;;;;-143.85;100.00;70650.75;5112103;28;20135;-91
2022/10/22 05:41:52;;;;;;;9.65;4.60;;;;;;;-143.85;100.00;70650.75;5112857;28;20023;-89
2022/10/22 05:44:18;;;;;;;8.65;5.03;;;;;;;-143.85;100.00;70650.75;5111057;28;20062;-89
2022/10/22 05:46:44;;;;;;;13.63;4.85;;;;;;;-143.85;100.00;70650.75;5102002;28;20047;-88
2022/10/22 05:49:12;;;;;;;9.40;4.43;;;;;;;-143.85;100.00;70650.75;5108587;28;20028;-90
2022/10/22 05:51:37;;;;;;;;;;;;;;;-143.85;100.00;70650.75;5105788;28;20027;-89
2022/10/22 05:54:06;;;;;;;5.57;3.35;;;;;;;-143.85;100.00;70650.75;5096472;28;20431;-88
2022/10/22 05:56:32;;;;;;;15.20;4.72;;;;;;;-143.85;100.00;70650.75;5113648;28;20020;-90
2022/10/22 05:58:58;;;;;;;6.03;3.38;;;;;;;-143.85;100.00;70650.75;5112152;28;20023;-89
2022/10/22 06:01:29;;;;;;;12.13;4.10;;;;;;;-143.85;100.00;70650.75;5092242;28;20028;-90
2022/10/22 06:03:57;;;;;;;7.35;4.22;;;;;;;-143.85;100.00;70650.75;5098277;28;20475;-90
2022/10/22 06:06:29;;;;;;;;;;;;;;;-143.85;100.00;70650.75;5113125;28;20468;-88
2022/10/22 06:08:58;;;;;;;11.10;4.88;;;;;;;-143.85;100.00;70650.75;5109684;28;19912;-90
2022/10/22 06:11:23;;;;;;;7.05;4.00;;;;;;;-143.85;100.00;70650.75;5093165;28;20107;-89
2022/10/22 06:13:51;;;;;;;8.55;4.55;;;;;;;-143.85;100.00;70650.75;5107134;28;20112;-89
2022/10/22 06:16:16;;;;;;;13.15;4.53;;;;;;;-143.85;100.00;70650.75;5092030;28;20395;-87
2022/10/22 06:18:42;;;;;;;9.20;4.57;;;;;;;-143.85;100.00;70650.75;5091706;28;20020;-87
2022/10/22 06:21:13;;;;;;;18.15;4.53;;;;;;;-143.85;100.00;70650.75;5096472;28;20031;-88
2022/10/22 06:23:39;;;;;;;10.65;5.57;;;;;;;-143.85;100.00;70650.75;5111423;28;20019;-89
2022/10/22 06:26:06;;;;;;;7.68;4.70;;;;;;;-143.85;100.00;70650.75;5110177;28;20143;-87
2022/10/22 06:28:32;;;;;;;7.28;4.15;;;;;;;-143.85;100.00;70650.75;5112376;28;20034;-87
2022/10/22 06:30:59;;;;;;;7.00;3.45;;;;;;;-143.85;100.00;70650.75;5112497;28;20028;-88
2022/10/22 06:33:25;;;;;;;8.45;4.55;;;;;;;-143.85;100.00;70650.75;5111822;28;20071;-88
2022/10/22 06:35:51;;;;;;;8.27;3.67;;;;;;;-143.85;100.00;70650.75;5098643;28;20104;-87
2022/10/22 06:38:16;;;;;;;8.30;4.68;;;;;;;-143.85;100.00;70650.75;5113652;28;20463;-87
2022/10/22 06:40:43;;;;;;;8.25;4.18;;;;;;;-143.85;100.00;70650.75;5093442;28;20119;-86
2022/10/22 06:43:10;;;;;;;8.38;4.60;;;;;;;-143.85;100.00;70650.75;5100243;28;20112;-85
2022/10/22 06:45:35;;;;;;;8.48;4.25;;;;;;;-143.85;100.00;70650.75;5109258;28;20027;-87
2022/10/22 06:48:01;;;;;;;7.97;4.43;;;;;;;-143.85;100.00;70650.75;5112076;28;20114;-86
2022/10/22 06:50:26;;;;;;;9.27;4.80;;;;;;;-143.85;100.00;70650.75;5113128;28;20022;-82
2022/10/22 06:52:52;;;;;;;8.65;4.47;;;;;;;-143.85;100.00;70650.75;5121567;28;20088;-87
2022/10/22 06:55:17;;;;;;;7.85;3.78;;;;;;;-143.85;100.00;70650.75;5124168;28;20012;-83
2022/10/22 06:57:42;;;;;;;8.95;4.72;;;;;;;-143.85;100.00;70650.75;5113910;28;20036;-84
2022/10/22 07:00:08;;;;;;;11.23;4.70;;;;;;;-143.85;100.00;70650.75;5111605;28;20027;-83
2022/10/22 07:02:34;;;;;;;6.25;4.07;;;;;;;-143.85;100.00;70650.75;5109721;28;20384;-83
2022/10/22 07:04:59;;;;;;;6.80;3.70;;;;;;;-143.85;100.00;70650.75;5096233;28;20044;-83
2022/10/22 07:07:25;;;;;;;6.93;3.67;;;;;;;-143.85;100.00;70650.75;5112028;28;20027;-83
2022/10/22 07:09:50;;;;;;;7.28;4.47;;;;;;;-143.85;100.00;70650.75;5098659;28;20059;-83
2022/10/22 07:12:16;;;;;;;9.35;4.13;;;;;;;-143.85;100.00;70650.75;5105535;28;20094;-82
2022/10/22 07:14:41;;;;;;;8.73;3.40;;;;;;;-143.85;100.00;70650.75;5103816;28;20119;-82
2022/10/22 07:17:07;;;;;;;4.82;3.30;;;;;;;-143.85;100.00;70650.75;5115056;28;20024;-84
2022/10/22 07:19:32;;;;;;;8.50;4.32;;;;;;;-143.85;100.00;70650.75;5115801;28;20471;-84
2022/10/22 07:21:58;;;;;;;7.32;3.30;;;;;;;-143.85;100.00;70650.75;5114860;28;20085;-84
2022/10/22 07:24:23;;;;;;;13.27;3.53;;;;;;;-143.85;100.00;70650.75;5107144;28;20035;-83
2022/10/22 07:26:49;;;;;;;9.05;3.70;;;;;;;-143.85;100.00;70650.75;5105284;28;20503;-83
2022/10/22 07:29:14;;;;;;;7.18;3.95;;;;;;;-143.85;100.00;70650.75;5094739;28;20024;-83
2022/10/22 07:31:40;;;;;;;7.18;3.78;;;;;;;-143.85;100.00;70650.75;5094808;28;20028;-83
2022/10/22 07:34:07;;;;;;;5.82;3.67;;;;;;;-143.85;100.00;70650.75;5108389;28;20042;-84
2022/10/22 07:36:32;;;;;;;6.28;3.45;;;;;;;-143.85;100.00;70650.75;5100456;28;20035;-84
2022/10/22 07:38:59;;;;;;;6.82;3.65;;;;;;;-143.85;100.00;70650.75;5102884;28;20024;-84
2022/10/22 07:41:26;;;;;;;8.50;4.75;;;;;;;-143.85;100.00;70650.75;5097899;28;20598;-84
2022/10/22 07:43:51;;;;;;;9.20;3.88;;;;;;;-143.85;100.00;70650.75;5111107;28;20119;-84
2022/10/22 07:46:17;;;;;;;9.13;3.95;;;;;;;-143.85;100.00;70650.75;5111566;28;20102;-84
2022/10/22 07:48:42;;;;;;;9.80;4.57;;;;;;;-143.85;100.00;70650.75;5107914;28;20078;-84
2022/10/22 07:51:08;;;;;;;8.73;4.07;;;;;;;-143.85;100.00;70650.75;5111460;28;20032;-84
2022/10/22 07:53:34;;;;;;;16.33;5.28;;;;;;;-143.85;100.00;70650.75;5113286;28;20019;-85
2022/10/22 07:55:59;;;;;;;27.40;6.30;;;;;;;-143.85;100.00;70650.75;5115957;28;20028;-86
2022/10/22 07:58:25;;;;;;;7.38;4.00;;;;;;;-143.85;100.00;70650.75;5115092;28;20123;-85
2022/10/22 08:00:54;;;;;;;7.38;4.47;;;;;;;-143.85;100.00;70650.75;5101734;28;20027;-84
2022/10/22 08:03:20;;;;;;;7.18;3.25;;;;;;;-143.85;100.00;70650.75;5096168;28;20024;-85
2022/10/22 08:05:46;;;;;;;9.50;3.90;;;;;;;-143.85;100.00;70650.75;5114615;28;20058;-85
2022/10/22 08:08:13;;;;;;;6.38;3.63;;;;;;;-143.85;100.00;70650.75;5114584;28;20027;-85
2022/10/22 08:10:39;;;;;;;7.80;3.92;;;;;;;-143.85;100.00;70650.75;5115970;28;20036;-85
2022/10/22 08:13:05;;;;;;;7.43;3.33;;;;;;;-143.85;100.00;70650.75;5113083;28;20035;-84
2022/10/22 08:15:31;;;;;;;10.70;4.30;;;;;;;-143.85;100.00;70650.75;5114774;28;20471;-85
2022/10/22 08:17:56;;;;;;;7.40;5.25;;;;;;;-143.85;100.00;70650.75;5096536;28;20035;-84
2022/10/22 08:20:22;;;;;;;8.52;3.80;;;;;;;-143.85;100.00;70650.75;5104447;28;20063;-84
2022/10/22 08:22:47;;;;;;;6.75;3.70;;;;;;;-143.85;100.00;70650.75;5114500;28;20463;-85
2022/10/22 08:25:14;;;;;;;6.75;4.35;;;;;;;-143.85;100.00;70650.75;5113702;28;20031;-85
2022/10/22 08:27:39;;;;;;;7.38;4.47;;;;;;;-143.85;100.00;70650.75;5093376;28;20046;-84
2022/10/22 08:30:05;;;;;;;11.60;4.85;;;;;;;-143.85;100.00;70650.75;5107291;28;20485;-84
2022/10/22 08:32:31;;;;;;;9.38;5.18;;;;;;;-143.85;100.00;70650.75;5094774;28;20074;-86
2022/10/22 08:34:56;;;;;;;13.63;4.63;;;;;;;-143.85;100.00;70650.75;5096160;28;20020;-84
2022/10/22 08:37:22;;;;;;;10.98;4.28;;;;;;;-143.85;100.00;70650.75;5114583;28;20526;-84
2022/10/22 08:39:48;;;;;;;14.45;4.43;;;;;;;-143.85;100.00;70650.75;5114279;28;20119;-85
2022/10/22 08:42:35;;;;;;;6.95;4.13;;;;;;;-143.85;100.00;70650.75;5114296;28;20054;-86
2022/10/22 08:45:06;;;;;;;8.48;4.43;;;;;;;-143.85;100.00;70650.75;5101417;28;20067;-86
2022/10/22 08:47:50;;;;;;;8.63;3.80;;;;;;;-143.85;100.00;70650.75;5100232;28;20047;-86
2022/10/22 08:50:29;;;;;;;5.93;3.35;;;;;;;-143.85;100.00;70650.75;5115358;28;20032;-86
2022/10/22 08:52:58;;;;;;;9.45;4.60;;;;;;;-143.85;100.00;70650.75;5114239;28;20054;-85
2022/10/22 08:55:24;;;;;;;9.77;4.03;;;;;;;-143.85;100.00;70650.75;5115163;28;20098;-85
2022/10/22 08:58:02;;;;;;;8.43;4.30;;;;;;;-143.85;100.00;70650.75;5113859;28;20501;-88
2022/10/22 09:00:32;;;;;;;8.60;4.30;;;;;;;-143.85;100.00;70650.75;5095581;28;20027;-88
2022/10/22 09:03:34;;;;;;;29.17;5.38;;;;;;;-143.85;100.00;70650.75;5093563;28;20028;-86
2022/10/22 09:06:24;;;;;;;8.55;4.40;;;;;;;-143.85;100.00;70650.75;5105058;28;20119;-86
2022/10/22 09:08:52;;;;;;;8.30;4.60;;;;;;;-143.85;100.00;70650.75;5104000;27;20042;-86
2022/10/22 09:11:29;;;;;;;8.00;4.57;;;;;;;-143.85;100.00;70650.75;5094738;28;20543;-87
2022/10/22 09:13:56;;;;;;;8.38;3.05;;;;;;;-143.85;100.00;70650.75;5106596;28;20035;-86
2022/10/22 09:16:50;;;;;;;8.05;3.92;;;;;;;-143.85;100.00;70650.75;5104552;28;20110;-86
2022/10/22 09:19:59;;;;;;;13.45;4.90;;;;;;;-143.85;100.00;70650.75;5113702;28;20024;-86
2022/10/22 09:22:49;;;;;;;8.38;4.68;;;;;;;-143.85;100.00;70650.75;5109113;28;20027;-87
2022/10/22 09:25:20;;;;;;;10.02;5.05;;;;;;;-143.85;100.00;70650.75;5093142;28;20089;-88
2022/10/22 09:27:47;;;;;;;10.50;4.63;;;;;;;-143.85;100.00;70650.75;5101319;28;20040;-86
2022/10/22 09:30:24;;;;;;;4.90;3.22;;;;;;;-143.85;100.00;70650.75;5113174;28;20020;-86
2022/10/22 09:33:09;;;;;;;8.93;3.92;;;;;;;-143.85;100.00;70650.75;5107170;28;20055;-87
2022/10/22 09:35:53;;;;;;;7.07;3.70;;;;;;;-143.85;100.00;70650.75;5111143;27;20028;-87
2022/10/22 09:38:24;;;;;;;7.75;4.30;;;;;;;-143.85;100.00;70650.75;5110360;28;20035;-87
2022/10/22 09:40:51;;;;;;;8.10;4.93;;;;;;;-143.85;100.00;70650.75;5095151;28;20028;-86
2022/10/22 09:43:17;;;;;;;9.27;4.72;;;;;;;-143.85;100.00;70650.75;5114308;28;20031;-86
2022/10/22 09:45:44;;;;;;;10.52;3.97;;;;;;;-143.85;100.00;70650.75;5100007;28;20024;-87
2022/10/22 09:48:18;;;;;;;10.52;4.45;;;;;;;-143.85;100.00;70650.75;5092511;28;20024;-86
2022/10/22 09:50:45;;;;;;;6.88;4.07;;;;;;;-143.85;100.00;70650.75;5107125;28;20027;-87
2022/10/22 09:53:19;;;;;;;5.00;3.53;;;;;;;-143.85;100.00;70650.75;5101548;28;20030;-85
2022/10/22 09:55:51;;;;;;;10.68;4.40;;;;;;;-143.85;100.00;70650.75;5113399;28;20502;-86
2022/10/22 09:58:16;;;;;;;9.48;4.80;;;;;;;-143.85;100.00;70650.75;5095440;28;20075;-88
2022/10/22 10:00:44;;;;;;;7.60;4.50;;;;;;;-143.85;100.00;70650.75;5092424;28;20043;-89
2022/10/22 10:03:23;;;;;;;7.00;3.95;;;;;;;-143.85;100.00;70650.75;5111098;28;20031;-90
2022/10/22 10:05:52;;;;;;;6.40;4.18;;;;;;;-143.85;100.00;70650.75;5109015;28;20057;-86
2022/10/22 10:08:18;;;;;;;8.38;4.07;;;;;;;-143.85;100.00;70650.75;5109742;28;20418;-86
2022/10/22 10:11:04;;;;;;;7.45;4.45;;;;;;;-143.85;100.00;70650.75;5089782;28;20052;-86
2022/10/22 10:13:37;;;;;;;9.90;5.43;;;;;;;-143.85;100.00;70650.75;5117984;28;20008;-87
2022/10/22 10:16:12;;;;;;;8.75;3.90;;;;;;;-143.85;100.00;70650.75;5119068;28;20040;-86
2022/10/22 10:19:01;;;;;;;6.82;3.75;;;;;;;-143.85;100.00;70650.75;5093370;28;20057;-86
2022/10/22 10:21:44;;;;;;;7.18;3.42;;;;;;;-143.85;100.00;70650.75;5093881;28;20111;-86
2022/10/22 10:24:09;;;;;;;9.70;4.85;;;;;;;-143.85;100.00;70650.75;5100188;28;20028;-89
2022/10/22 10:26:42;;;;;;;12.27;4.57;;;;;;;-143.85;100.00;70650.75;5112652;28;20042;-89
2022/10/22 10:29:10;;;;;;;8.10;3.83;;;;;;;-143.85;100.00;70650.75;5092940;28;20024;-86
2022/10/22 10:31:59;;;;;;;11.88;4.47;;;;;;;-143.85;100.00;70650.75;5104594;28;20059;-86
2022/10/22 10:34:38;;;;;;;9.10;3.75;;;;;;;-143.85;100.00;70650.75;5103255;28;20483;-86
2022/10/22 10:37:37;;;;;;;9.95;5.10;;;;;;;-143.85;100.00;70650.75;5112397;28;20122;-88
2022/10/22 10:40:36;;;;;;;7.78;4.47;;;;;;;-143.85;100.00;70650.75;5112853;28;20035;-88
2022/10/22 10:43:19;;;;;;;11.15;5.38;;;;;;;-143.85;100.00;70650.75;5092390;28;20035;-88
2022/10/22 10:45:51;;;;;;;8.65;4.93;;;;;;;-143.85;100.00;70650.75;5108728;28;20491;-86
2022/10/22 10:48:50;;;;;;;6.53;3.15;;;;;;;-143.85;100.00;70650.75;5101812;28;20475;-88
2022/10/22 10:51:27;;;;;;;5.88;3.30;;;;;;;-143.85;100.00;70650.75;5114848;28;20076;-88
2022/10/22 10:54:26;;;;;;;11.10;5.07;;;;;;;-143.85;100.00;70650.75;5117571;28;20028;-88
2022/10/22 10:56:59;;;;;;;7.28;3.40;;;;;;;-143.85;100.00;70650.75;5116779;28;20072;-88
2022/10/22 10:59:58;;;;;;;7.18;4.50;;;;;;;-143.85;100.00;70650.75;5116460;28;20101;-88
2022/10/22 11:03:03;;;;;;;8.85;5.10;;;;;;;-143.85;100.00;70650.75;5116564;28;20487;-88
2022/10/22 11:05:50;;;;;;;12.88;3.67;;;;;;;-143.85;100.00;70650.75;5096085;28;20488;-91
2022/10/22 11:08:24;;;;;;;11.07;4.17;;;;;;;-143.85;100.00;70650.75;5100037;28;20487;-89
2022/10/22 11:11:00;;;;;;;9.38;5.15;;;;;;;-143.85;100.00;70650.75;5108840;28;20115;-89
2022/10/22 11:13:38;;;;;;;11.45;3.78;;;;;;;-143.85;100.00;70650.75;5110778;28;20161;-89
2022/10/22 11:16:21;;;;;;;11.95;3.78;;;;;;;-143.85;100.00;70650.75;5104239;28;20483;-90
2022/10/22 11:18:57;;;;;;;5.50;3.28;;;;;;;-143.85;100.00;70650.75;5115809;28;20031;-89
2022/10/22 11:21:38;;;;;;;10.35;3.83;;;;;;;-143.85;100.00;70650.75;5117191;28;20028;-90